sensor_id;sensor_type;location;lat;lon;timestamp;P1;durP1;ratioP1;P2;durP2;ratioP2
67768;SDS011;54569;52.018;5.584;2023-04-03T00:01:18;2.78;;;1.60;;
67768;SDS011;54569;52.018;5.584;2023-04-03T00:03:45;2.60;;;1.67;;
67768;SDS011;54569;52.018;5.584;2023-04-03T00:06:11;1.73;;;1.30;;
67768;SDS011;54569;52.018;5.584;2023-04-03T00:08:37;3.15;;;1.30;;
67768;SDS011;54569;52.018;5.584;2023-04-03T00:11:04;2.33;;;1.40;;
67768;SDS011;54569;52.018;5.584;2023-04-03T00:13:31;2.50;;;1.50;;
67768;SDS011;54569;52.018;5.584;2023-04-03T00:15:57;1.63;;;1.30;;
67768;SDS011;54569;52.018;5.584;2023-04-03T00:18:23;1.42;;;1.33;;
67768;SDS011;54569;52.018;5.584;2023-04-03T00:20:49;2.20;;;1.38;;
67768;SDS011;54569;52.018;5.584;2023-04-03T00:23:15;1.92;;;1.48;;
67768;SDS011;54569;52.018;5.584;2023-04-03T00:25:40;2.38;;;1.45;;
67768;SDS011;54569;52.018;5.584;2023-04-03T00:28:06;1.90;;;1.27;;
67768;SDS011;54569;52.018;5.584;2023-04-03T00:30:32;2.90;;;1.50;;
67768;SDS011;54569;52.018;5.584;2023-04-03T00:32:58;2.25;;;1.30;;
67768;SDS011;54569;52.018;5.584;2023-04-03T00:35:24;2.78;;;1.63;;
67768;SDS011;54569;52.018;5.584;2023-04-03T00:37:51;2.00;;;1.60;;
67768;SDS011;54569;52.018;5.584;2023-04-03T00:40:18;2.40;;;1.30;;
67768;SDS011;54569;52.018;5.584;2023-04-03T00:42:45;1.75;;;1.13;;
67768;SDS011;54569;52.018;5.584;2023-04-03T00:47:54;1.92;;;1.30;;
67768;SDS011;54569;52.018;5.584;2023-04-03T00:50:20;3.05;;;1.50;;
67768;SDS011;54569;52.018;5.584;2023-04-03T00:52:46;1.63;;;1.33;;
67768;SDS011;54569;52.018;5.584;2023-04-03T00:55:14;2.33;;;1.60;;
67768;SDS011;54569;52.018;5.584;2023-04-03T00:57:40;2.97;;;1.50;;
67768;SDS011;54569;52.018;5.584;2023-04-03T01:00:11;3.30;;;1.50;;
67768;SDS011;54569;52.018;5.584;2023-04-03T01:02:39;1.42;;;1.30;;
67768;SDS011;54569;52.018;5.584;2023-04-03T01:05:08;2.45;;;1.67;;
67768;SDS011;54569;52.018;5.584;2023-04-03T01:07:35;2.22;;;1.50;;
67768;SDS011;54569;52.018;5.584;2023-04-03T01:10:07;2.63;;;1.33;;
67768;SDS011;54569;52.018;5.584;2023-04-03T01:12:37;2.58;;;1.27;;
67768;SDS011;54569;52.018;5.584;2023-04-03T01:15:15;3.55;;;1.55;;
67768;SDS011;54569;52.018;5.584;2023-04-03T01:17:58;1.80;;;1.67;;
67768;SDS011;54569;52.018;5.584;2023-04-03T01:25:43;4.22;;;1.55;;
67768;SDS011;54569;52.018;5.584;2023-04-03T01:28:13;2.63;;;1.27;;
67768;SDS011;54569;52.018;5.584;2023-04-03T01:30:43;2.50;;;1.58;;
67768;SDS011;54569;52.018;5.584;2023-04-03T01:33:25;1.88;;;1.13;;
67768;SDS011;54569;52.018;5.584;2023-04-03T01:35:51;1.77;;;1.30;;
67768;SDS011;54569;52.018;5.584;2023-04-03T01:38:17;1.40;;;1.30;;
67768;SDS011;54569;52.018;5.584;2023-04-03T01:40:43;2.88;;;1.60;;
67768;SDS011;54569;52.018;5.584;2023-04-03T01:43:09;1.65;;;1.55;;
67768;SDS011;54569;52.018;5.584;2023-04-03T01:45:35;3.90;;;1.40;;
67768;SDS011;54569;52.018;5.584;2023-04-03T01:48:01;4.57;;;1.90;;
67768;SDS011;54569;52.018;5.584;2023-04-03T01:50:27;1.40;;;1.30;;
67768;SDS011;54569;52.018;5.584;2023-04-03T01:52:53;3.08;;;1.10;;
67768;SDS011;54569;52.018;5.584;2023-04-03T01:55:19;1.95;;;1.23;;
67768;SDS011;54569;52.018;5.584;2023-04-03T01:57:45;2.35;;;1.25;;
67768;SDS011;54569;52.018;5.584;2023-04-03T02:00:10;2.97;;;1.77;;
67768;SDS011;54569;52.018;5.584;2023-04-03T02:02:40;4.35;;;1.45;;
67768;SDS011;54569;52.018;5.584;2023-04-03T02:05:06;2.30;;;1.38;;
67768;SDS011;54569;52.018;5.584;2023-04-03T02:07:32;2.83;;;1.55;;
67768;SDS011;54569;52.018;5.584;2023-04-03T02:09:57;2.45;;;1.30;;
67768;SDS011;54569;52.018;5.584;2023-04-03T02:12:23;1.73;;;1.23;;
67768;SDS011;54569;52.018;5.584;2023-04-03T02:14:50;3.13;;;1.52;;
67768;SDS011;54569;52.018;5.584;2023-04-03T02:17:15;2.65;;;1.33;;
67768;SDS011;54569;52.018;5.584;2023-04-03T02:19:41;1.88;;;1.20;;
67768;SDS011;54569;52.018;5.584;2023-04-03T02:22:07;4.20;;;1.70;;
67768;SDS011;54569;52.018;5.584;2023-04-03T02:24:32;2.97;;;2.08;;
67768;SDS011;54569;52.018;5.584;2023-04-03T02:26:58;4.88;;;1.73;;
67768;SDS011;54569;52.018;5.584;2023-04-03T02:29:25;4.15;;;1.83;;
67768;SDS011;54569;52.018;5.584;2023-04-03T02:31:52;6.55;;;1.42;;
67768;SDS011;54569;52.018;5.584;2023-04-03T02:34:19;3.45;;;1.55;;
67768;SDS011;54569;52.018;5.584;2023-04-03T02:36:46;2.25;;;1.80;;
67768;SDS011;54569;52.018;5.584;2023-04-03T02:39:13;2.45;;;1.30;;
67768;SDS011;54569;52.018;5.584;2023-04-03T02:41:39;4.90;;;1.83;;
67768;SDS011;54569;52.018;5.584;2023-04-03T02:44:11;1.50;;;1.40;;
67768;SDS011;54569;52.018;5.584;2023-04-03T02:46:37;2.03;;;1.40;;
67768;SDS011;54569;52.018;5.584;2023-04-03T02:49:03;2.38;;;1.70;;
67768;SDS011;54569;52.018;5.584;2023-04-03T02:51:29;2.25;;;1.52;;
67768;SDS011;54569;52.018;5.584;2023-04-03T02:53:56;3.22;;;1.58;;
67768;SDS011;54569;52.018;5.584;2023-04-03T02:56:25;3.05;;;1.38;;
67768;SDS011;54569;52.018;5.584;2023-04-03T02:58:51;3.92;;;1.80;;
67768;SDS011;54569;52.018;5.584;2023-04-03T03:01:18;3.20;;;1.50;;
67768;SDS011;54569;52.018;5.584;2023-04-03T03:03:44;2.17;;;1.55;;
67768;SDS011;54569;52.018;5.584;2023-04-03T03:06:12;3.08;;;1.58;;
67768;SDS011;54569;52.018;5.584;2023-04-03T03:08:39;3.67;;;1.80;;
67768;SDS011;54569;52.018;5.584;2023-04-03T03:11:05;3.70;;;1.70;;
67768;SDS011;54569;52.018;5.584;2023-04-03T03:13:32;2.80;;;1.45;;
67768;SDS011;54569;52.018;5.584;2023-04-03T03:15:58;2.22;;;1.42;;
67768;SDS011;54569;52.018;5.584;2023-04-03T03:18:24;2.67;;;1.30;;
67768;SDS011;54569;52.018;5.584;2023-04-03T03:20:51;3.38;;;1.40;;
67768;SDS011;54569;52.018;5.584;2023-04-03T03:23:18;4.00;;;1.70;;
67768;SDS011;54569;52.018;5.584;2023-04-03T03:25:45;6.45;;;1.73;;
67768;SDS011;54569;52.018;5.584;2023-04-03T03:28:10;2.80;;;1.70;;
67768;SDS011;54569;52.018;5.584;2023-04-03T03:30:37;2.80;;;1.80;;
67768;SDS011;54569;52.018;5.584;2023-04-03T03:33:02;3.85;;;1.60;;
67768;SDS011;54569;52.018;5.584;2023-04-03T03:35:28;2.15;;;1.30;;
67768;SDS011;54569;52.018;5.584;2023-04-03T03:37:54;5.30;;;1.88;;
67768;SDS011;54569;52.018;5.584;2023-04-03T03:40:21;3.55;;;1.40;;
67768;SDS011;54569;52.018;5.584;2023-04-03T03:42:47;3.90;;;1.50;;
67768;SDS011;54569;52.018;5.584;2023-04-03T03:45:12;3.40;;;1.77;;
67768;SDS011;54569;52.018;5.584;2023-04-03T03:47:40;3.38;;;1.80;;
67768;SDS011;54569;52.018;5.584;2023-04-03T03:50:06;2.95;;;1.70;;
67768;SDS011;54569;52.018;5.584;2023-04-03T03:52:32;3.35;;;1.75;;
67768;SDS011;54569;52.018;5.584;2023-04-03T03:54:58;1.92;;;1.77;;
67768;SDS011;54569;52.018;5.584;2023-04-03T03:57:23;2.72;;;1.75;;
67768;SDS011;54569;52.018;5.584;2023-04-03T03:59:50;4.30;;;1.67;;
67768;SDS011;54569;52.018;5.584;2023-04-03T04:02:17;4.70;;;1.80;;
67768;SDS011;54569;52.018;5.584;2023-04-03T04:04:43;6.18;;;2.20;;
67768;SDS011;54569;52.018;5.584;2023-04-03T04:07:09;5.07;;;2.10;;
67768;SDS011;54569;52.018;5.584;2023-04-03T04:09:35;3.15;;;1.30;;
67768;SDS011;54569;52.018;5.584;2023-04-03T04:12:01;5.05;;;1.70;;
67768;SDS011;54569;52.018;5.584;2023-04-03T04:14:29;2.78;;;1.60;;
67768;SDS011;54569;52.018;5.584;2023-04-03T04:16:55;2.83;;;1.70;;
67768;SDS011;54569;52.018;5.584;2023-04-03T04:19:26;6.88;;;2.08;;
67768;SDS011;54569;52.018;5.584;2023-04-03T04:21:51;5.78;;;2.05;;
67768;SDS011;54569;52.018;5.584;2023-04-03T04:24:18;3.78;;;1.70;;
67768;SDS011;54569;52.018;5.584;2023-04-03T04:26:44;6.50;;;1.92;;
67768;SDS011;54569;52.018;5.584;2023-04-03T04:29:12;2.60;;;1.50;;
67768;SDS011;54569;52.018;5.584;2023-04-03T04:31:38;3.65;;;1.95;;
67768;SDS011;54569;52.018;5.584;2023-04-03T04:34:04;6.00;;;1.92;;
67768;SDS011;54569;52.018;5.584;2023-04-03T04:36:30;4.88;;;2.03;;
67768;SDS011;54569;52.018;5.584;2023-04-03T04:38:56;3.90;;;1.92;;
67768;SDS011;54569;52.018;5.584;2023-04-03T04:41:25;4.43;;;1.90;;
67768;SDS011;54569;52.018;5.584;2023-04-03T04:43:52;3.35;;;1.50;;
67768;SDS011;54569;52.018;5.584;2023-04-03T04:46:19;2.00;;;1.67;;
67768;SDS011;54569;52.018;5.584;2023-04-03T04:48:50;3.10;;;1.80;;
67768;SDS011;54569;52.018;5.584;2023-04-03T04:51:18;2.85;;;1.70;;
67768;SDS011;54569;52.018;5.584;2023-04-03T04:53:44;5.10;;;1.90;;
67768;SDS011;54569;52.018;5.584;2023-04-03T04:56:13;7.05;;;1.92;;
67768;SDS011;54569;52.018;5.584;2023-04-03T04:58:39;4.63;;;2.45;;
67768;SDS011;54569;52.018;5.584;2023-04-03T05:01:07;5.70;;;1.80;;
67768;SDS011;54569;52.018;5.584;2023-04-03T05:03:38;2.78;;;1.33;;
67768;SDS011;54569;52.018;5.584;2023-04-03T05:06:04;4.03;;;1.90;;
67768;SDS011;54569;52.018;5.584;2023-04-03T05:08:31;4.53;;;2.20;;
67768;SDS011;54569;52.018;5.584;2023-04-03T05:10:59;3.75;;;1.50;;
67768;SDS011;54569;52.018;5.584;2023-04-03T05:13:26;2.25;;;1.33;;
67768;SDS011;54569;52.018;5.584;2023-04-03T05:15:53;3.05;;;1.65;;
67768;SDS011;54569;52.018;5.584;2023-04-03T05:18:19;4.43;;;1.88;;
67768;SDS011;54569;52.018;5.584;2023-04-03T05:20:45;3.88;;;1.70;;
67768;SDS011;54569;52.018;5.584;2023-04-03T05:23:13;3.72;;;1.80;;
67768;SDS011;54569;52.018;5.584;2023-04-03T05:25:39;2.72;;;1.52;;
67768;SDS011;54569;52.018;5.584;2023-04-03T05:28:06;5.47;;;2.08;;
67768;SDS011;54569;52.018;5.584;2023-04-03T05:30:32;3.28;;;1.77;;
67768;SDS011;54569;52.018;5.584;2023-04-03T05:33:00;3.33;;;1.83;;
67768;SDS011;54569;52.018;5.584;2023-04-03T05:35:38;4.30;;;1.88;;
67768;SDS011;54569;52.018;5.584;2023-04-03T05:38:07;3.35;;;1.65;;
67768;SDS011;54569;52.018;5.584;2023-04-03T05:40:33;5.38;;;2.17;;
67768;SDS011;54569;52.018;5.584;2023-04-03T05:42:58;3.55;;;1.60;;
67768;SDS011;54569;52.018;5.584;2023-04-03T05:45:27;5.60;;;1.77;;
67768;SDS011;54569;52.018;5.584;2023-04-03T05:47:53;3.15;;;1.80;;
67768;SDS011;54569;52.018;5.584;2023-04-03T05:50:19;3.53;;;1.55;;
67768;SDS011;54569;52.018;5.584;2023-04-03T05:52:48;6.30;;;1.77;;
67768;SDS011;54569;52.018;5.584;2023-04-03T05:55:16;4.53;;;1.70;;
67768;SDS011;54569;52.018;5.584;2023-04-03T05:57:43;3.22;;;1.80;;
67768;SDS011;54569;52.018;5.584;2023-04-03T06:00:11;2.72;;;1.98;;
67768;SDS011;54569;52.018;5.584;2023-04-03T06:02:39;3.45;;;1.88;;
67768;SDS011;54569;52.018;5.584;2023-04-03T06:05:09;1.95;;;1.48;;
67768;SDS011;54569;52.018;5.584;2023-04-03T06:07:37;4.38;;;1.65;;
67768;SDS011;54569;52.018;5.584;2023-04-03T06:10:03;2.50;;;1.80;;
67768;SDS011;54569;52.018;5.584;2023-04-03T06:12:30;1.92;;;1.60;;
67768;SDS011;54569;52.018;5.584;2023-04-03T06:14:56;7.75;;;2.20;;
67768;SDS011;54569;52.018;5.584;2023-04-03T06:17:22;3.05;;;1.50;;
67768;SDS011;54569;52.018;5.584;2023-04-03T06:19:48;5.70;;;1.90;;
67768;SDS011;54569;52.018;5.584;2023-04-03T06:22:15;3.33;;;2.30;;
67768;SDS011;54569;52.018;5.584;2023-04-03T06:24:41;4.18;;;2.03;;
67768;SDS011;54569;52.018;5.584;2023-04-03T06:27:06;5.05;;;2.00;;
67768;SDS011;54569;52.018;5.584;2023-04-03T06:29:32;4.03;;;1.90;;
67768;SDS011;54569;52.018;5.584;2023-04-03T06:31:58;4.53;;;2.40;;
67768;SDS011;54569;52.018;5.584;2023-04-03T06:34:23;3.03;;;1.73;;
67768;SDS011;54569;52.018;5.584;2023-04-03T06:36:49;6.53;;;1.90;;
67768;SDS011;54569;52.018;5.584;2023-04-03T06:39:16;5.47;;;1.98;;
67768;SDS011;54569;52.018;5.584;2023-04-03T06:41:45;3.83;;;1.70;;
67768;SDS011;54569;52.018;5.584;2023-04-03T06:44:11;4.40;;;1.50;;
67768;SDS011;54569;52.018;5.584;2023-04-03T06:46:38;2.88;;;1.70;;
67768;SDS011;54569;52.018;5.584;2023-04-03T06:49:04;2.47;;;1.70;;
67768;SDS011;54569;52.018;5.584;2023-04-03T06:51:32;3.72;;;1.40;;
67768;SDS011;54569;52.018;5.584;2023-04-03T06:53:59;3.63;;;1.80;;
67768;SDS011;54569;52.018;5.584;2023-04-03T06:56:25;2.45;;;1.35;;
67768;SDS011;54569;52.018;5.584;2023-04-03T06:58:52;4.00;;;1.48;;
67768;SDS011;54569;52.018;5.584;2023-04-03T07:01:28;2.78;;;1.65;;
67768;SDS011;54569;52.018;5.584;2023-04-03T07:03:55;4.05;;;1.50;;
67768;SDS011;54569;52.018;5.584;2023-04-03T07:06:21;5.07;;;1.95;;
67768;SDS011;54569;52.018;5.584;2023-04-03T07:08:47;1.92;;;1.33;;
67768;SDS011;54569;52.018;5.584;2023-04-03T07:11:14;5.13;;;1.90;;
67768;SDS011;54569;52.018;5.584;2023-04-03T07:13:40;3.22;;;1.65;;
67768;SDS011;54569;52.018;5.584;2023-04-03T07:16:06;2.17;;;1.42;;
67768;SDS011;54569;52.018;5.584;2023-04-03T07:18:33;3.58;;;1.30;;
67768;SDS011;54569;52.018;5.584;2023-04-03T07:20:59;2.00;;;1.27;;
67768;SDS011;54569;52.018;5.584;2023-04-03T07:23:25;3.22;;;1.75;;
67768;SDS011;54569;52.018;5.584;2023-04-03T07:25:51;6.22;;;1.50;;
67768;SDS011;54569;52.018;5.584;2023-04-03T07:28:18;3.65;;;1.77;;
67768;SDS011;54569;52.018;5.584;2023-04-03T07:30:45;2.90;;;1.38;;
67768;SDS011;54569;52.018;5.584;2023-04-03T07:33:13;5.45;;;1.70;;
67768;SDS011;54569;52.018;5.584;2023-04-03T07:35:40;4.50;;;1.17;;
67768;SDS011;54569;52.018;5.584;2023-04-03T07:38:07;2.58;;;1.17;;
67768;SDS011;54569;52.018;5.584;2023-04-03T07:40:33;4.85;;;1.55;;
67768;SDS011;54569;52.018;5.584;2023-04-03T07:43:00;5.60;;;1.70;;
67768;SDS011;54569;52.018;5.584;2023-04-03T07:45:25;4.13;;;1.80;;
67768;SDS011;54569;52.018;5.584;2023-04-03T07:47:52;3.22;;;1.42;;
67768;SDS011;54569;52.018;5.584;2023-04-03T07:50:18;3.80;;;1.35;;
67768;SDS011;54569;52.018;5.584;2023-04-03T07:52:44;2.97;;;1.60;;
67768;SDS011;54569;52.018;5.584;2023-04-03T07:55:10;7.10;;;1.42;;
67768;SDS011;54569;52.018;5.584;2023-04-03T07:57:36;1.35;;;1.25;;
67768;SDS011;54569;52.018;5.584;2023-04-03T08:00:05;2.47;;;1.10;;
67768;SDS011;54569;52.018;5.584;2023-04-03T08:02:37;2.60;;;1.13;;
67768;SDS011;54569;52.018;5.584;2023-04-03T08:05:03;3.03;;;1.25;;
67768;SDS011;54569;52.018;5.584;2023-04-03T08:07:29;3.45;;;1.40;;
67768;SDS011;54569;52.018;5.584;2023-04-03T08:09:54;2.92;;;1.33;;
67768;SDS011;54569;52.018;5.584;2023-04-03T08:12:21;1.65;;;0.95;;
67768;SDS011;54569;52.018;5.584;2023-04-03T08:14:46;1.85;;;0.90;;
67768;SDS011;54569;52.018;5.584;2023-04-03T08:17:12;1.65;;;1.05;;
67768;SDS011;54569;52.018;5.584;2023-04-03T08:19:38;3.47;;;1.77;;
67768;SDS011;54569;52.018;5.584;2023-04-03T08:22:04;3.28;;;1.48;;
67768;SDS011;54569;52.018;5.584;2023-04-03T08:24:34;3.88;;;1.52;;
67768;SDS011;54569;52.018;5.584;2023-04-03T08:27:00;3.55;;;1.55;;
67768;SDS011;54569;52.018;5.584;2023-04-03T08:29:26;1.10;;;0.93;;
67768;SDS011;54569;52.018;5.584;2023-04-03T08:31:51;2.40;;;1.15;;
67768;SDS011;54569;52.018;5.584;2023-04-03T08:34:17;3.63;;;1.15;;
67768;SDS011;54569;52.018;5.584;2023-04-03T08:36:44;2.67;;;0.98;;
67768;SDS011;54569;52.018;5.584;2023-04-03T08:39:10;1.27;;;1.10;;
67768;SDS011;54569;52.018;5.584;2023-04-03T08:41:37;2.70;;;1.10;;
67768;SDS011;54569;52.018;5.584;2023-04-03T08:44:09;2.28;;;0.90;;
67768;SDS011;54569;52.018;5.584;2023-04-03T08:46:47;1.45;;;0.93;;
67768;SDS011;54569;52.018;5.584;2023-04-03T08:49:26;1.83;;;1.08;;
67768;SDS011;54569;52.018;5.584;2023-04-03T08:51:59;3.33;;;1.42;;
67768;SDS011;54569;52.018;5.584;2023-04-03T08:54:36;1.50;;;1.00;;
67768;SDS011;54569;52.018;5.584;2023-04-03T08:59:38;1.63;;;0.70;;
67768;SDS011;54569;52.018;5.584;2023-04-03T09:02:23;1.48;;;0.80;;
67768;SDS011;54569;52.018;5.584;2023-04-03T09:04:53;0.80;;;0.65;;
67768;SDS011;54569;52.018;5.584;2023-04-03T09:07:39;1.52;;;0.85;;
67768;SDS011;54569;52.018;5.584;2023-04-03T09:10:23;2.00;;;0.85;;
67768;SDS011;54569;52.018;5.584;2023-04-03T09:12:54;1.23;;;0.88;;
67768;SDS011;54569;52.018;5.584;2023-04-03T09:15:26;1.35;;;0.85;;
67768;SDS011;54569;52.018;5.584;2023-04-03T09:23:45;0.85;;;0.43;;
67768;SDS011;54569;52.018;5.584;2023-04-03T09:26:21;0.82;;;0.63;;
67768;SDS011;54569;52.018;5.584;2023-04-03T09:28:54;0.63;;;0.40;;
67768;SDS011;54569;52.018;5.584;2023-04-03T09:31:26;0.93;;;0.60;;
67768;SDS011;54569;52.018;5.584;2023-04-03T09:34:02;0.75;;;0.60;;
67768;SDS011;54569;52.018;5.584;2023-04-03T09:39:12;0.40;;;0.40;;
67768;SDS011;54569;52.018;5.584;2023-04-03T09:41:41;0.60;;;0.50;;
67768;SDS011;54569;52.018;5.584;2023-04-03T09:44:23;0.95;;;0.30;;
67768;SDS011;54569;52.018;5.584;2023-04-03T09:46:51;0.32;;;0.30;;
67768;SDS011;54569;52.018;5.584;2023-04-03T09:49:17;0.30;;;0.30;;
67768;SDS011;54569;52.018;5.584;2023-04-03T09:51:44;0.45;;;0.30;;
67768;SDS011;54569;52.018;5.584;2023-04-03T09:57:20;0.30;;;0.30;;
67768;SDS011;54569;52.018;5.584;2023-04-03T10:02:23;0.40;;;0.40;;
67768;SDS011;54569;52.018;5.584;2023-04-03T10:05:02;0.88;;;0.50;;
67768;SDS011;54569;52.018;5.584;2023-04-03T10:07:34;0.43;;;0.30;;
67768;SDS011;54569;52.018;5.584;2023-04-03T10:10:22;0.57;;;0.50;;
67768;SDS011;54569;52.018;5.584;2023-04-03T10:13:12;0.68;;;0.50;;
67768;SDS011;54569;52.018;5.584;2023-04-03T10:15:42;1.80;;;0.32;;
67768;SDS011;54569;52.018;5.584;2023-04-03T10:21:14;0.70;;;0.30;;
67768;SDS011;54569;52.018;5.584;2023-04-03T10:23:51;0.95;;;0.50;;
67768;SDS011;54569;52.018;5.584;2023-04-03T10:35:03;0.98;;;0.50;;
67768;SDS011;54569;52.018;5.584;2023-04-03T10:40:47;0.52;;;0.52;;
67768;SDS011;54569;52.018;5.584;2023-04-03T10:43:36;2.00;;;0.60;;
67768;SDS011;54569;52.018;5.584;2023-04-03T10:46:11;0.77;;;0.50;;
67768;SDS011;54569;52.018;5.584;2023-04-03T10:48:55;0.77;;;0.52;;
67768;SDS011;54569;52.018;5.584;2023-04-03T10:51:49;0.73;;;0.50;;
67768;SDS011;54569;52.018;5.584;2023-04-03T10:54:43;1.17;;;0.70;;
67768;SDS011;54569;52.018;5.584;2023-04-03T10:57:10;1.08;;;0.80;;
67768;SDS011;54569;52.018;5.584;2023-04-03T11:02:07;1.25;;;0.70;;
67768;SDS011;54569;52.018;5.584;2023-04-03T11:04:53;1.75;;;0.95;;
67768;SDS011;54569;52.018;5.584;2023-04-03T11:07:25;0.75;;;0.68;;
67768;SDS011;54569;52.018;5.584;2023-04-03T11:09:57;1.20;;;0.90;;
67768;SDS011;54569;52.018;5.584;2023-04-03T11:12:46;2.65;;;1.15;;
67768;SDS011;54569;52.018;5.584;2023-04-03T11:15:17;0.85;;;0.70;;
67768;SDS011;54569;52.018;5.584;2023-04-03T11:17:53;1.73;;;1.20;;
67768;SDS011;54569;52.018;5.584;2023-04-03T11:20:29;1.13;;;0.80;;
67768;SDS011;54569;52.018;5.584;2023-04-03T11:23:06;1.65;;;1.10;;
67768;SDS011;54569;52.018;5.584;2023-04-03T11:25:42;0.82;;;0.80;;
67768;SDS011;54569;52.018;5.584;2023-04-03T11:28:12;1.58;;;0.90;;
67768;SDS011;54569;52.018;5.584;2023-04-03T11:36:24;1.15;;;0.80;;
67768;SDS011;54569;52.018;5.584;2023-04-03T11:38:54;1.38;;;0.80;;
67768;SDS011;54569;52.018;5.584;2023-04-03T11:41:29;2.78;;;1.00;;
67768;SDS011;54569;52.018;5.584;2023-04-03T11:46:52;4.88;;;0.80;;
67768;SDS011;54569;52.018;5.584;2023-04-03T11:55:54;1.17;;;0.80;;
67768;SDS011;54569;52.018;5.584;2023-04-03T12:05:49;1.50;;;0.80;;
67768;SDS011;54569;52.018;5.584;2023-04-03T12:08:26;1.92;;;0.82;;
67768;SDS011;54569;52.018;5.584;2023-04-03T12:16:22;1.45;;;0.80;;
67768;SDS011;54569;52.018;5.584;2023-04-03T12:19:49;2.05;;;1.02;;
67768;SDS011;54569;52.018;5.584;2023-04-03T12:46:07;1.55;;;0.70;;
67768;SDS011;54569;52.018;5.584;2023-04-03T12:51:09;1.77;;;0.93;;
67768;SDS011;54569;52.018;5.584;2023-04-03T12:53:55;1.10;;;0.77;;
67768;SDS011;54569;52.018;5.584;2023-04-03T12:56:27;1.48;;;0.80;;
67768;SDS011;54569;52.018;5.584;2023-04-03T12:58:55;1.75;;;0.80;;
67768;SDS011;54569;52.018;5.584;2023-04-03T13:01:38;2.13;;;1.00;;
67768;SDS011;54569;52.018;5.584;2023-04-03T13:04:03;2.17;;;0.90;;
67768;SDS011;54569;52.018;5.584;2023-04-03T13:06:42;1.98;;;0.90;;
67768;SDS011;54569;52.018;5.584;2023-04-03T13:09:18;1.40;;;0.80;;
67768;SDS011;54569;52.018;5.584;2023-04-03T13:11:46;1.58;;;1.00;;
67768;SDS011;54569;52.018;5.584;2023-04-03T13:14:21;2.20;;;0.90;;
67768;SDS011;54569;52.018;5.584;2023-04-03T13:17:03;1.50;;;0.90;;
67768;SDS011;54569;52.018;5.584;2023-04-03T13:19:40;2.40;;;1.00;;
67768;SDS011;54569;52.018;5.584;2023-04-03T13:22:33;1.23;;;0.68;;
67768;SDS011;54569;52.018;5.584;2023-04-03T13:24:57;1.67;;;0.90;;
67768;SDS011;54569;52.018;5.584;2023-04-03T13:27:25;1.20;;;0.70;;
67768;SDS011;54569;52.018;5.584;2023-04-03T13:29:53;1.98;;;1.05;;
67768;SDS011;54569;52.018;5.584;2023-04-03T13:32:22;1.42;;;0.85;;
67768;SDS011;54569;52.018;5.584;2023-04-03T13:34:50;1.17;;;0.98;;
67768;SDS011;54569;52.018;5.584;2023-04-03T13:37:23;2.17;;;1.02;;
67768;SDS011;54569;52.018;5.584;2023-04-03T13:39:57;1.40;;;0.80;;
67768;SDS011;54569;52.018;5.584;2023-04-03T13:42:27;1.65;;;0.85;;
67768;SDS011;54569;52.018;5.584;2023-04-03T13:47:43;1.60;;;1.20;;
67768;SDS011;54569;52.018;5.584;2023-04-03T13:50:15;1.48;;;0.95;;
67768;SDS011;54569;52.018;5.584;2023-04-03T13:52:54;5.05;;;1.20;;
67768;SDS011;54569;52.018;5.584;2023-04-03T13:57:57;1.85;;;0.82;;
67768;SDS011;54569;52.018;5.584;2023-04-03T14:00:32;3.03;;;1.00;;
67768;SDS011;54569;52.018;5.584;2023-04-03T14:03:40;0.82;;;0.82;;
67768;SDS011;54569;52.018;5.584;2023-04-03T14:06:12;2.22;;;0.98;;
67768;SDS011;54569;52.018;5.584;2023-04-03T14:08:40;1.58;;;1.10;;
67768;SDS011;54569;52.018;5.584;2023-04-03T14:11:08;3.08;;;0.98;;
67768;SDS011;54569;52.018;5.584;2023-04-03T14:13:46;1.92;;;1.08;;
67768;SDS011;54569;52.018;5.584;2023-04-03T14:16:16;2.28;;;0.85;;
67768;SDS011;54569;52.018;5.584;2023-04-03T14:18:45;2.40;;;1.30;;
67768;SDS011;54569;52.018;5.584;2023-04-03T14:21:13;2.70;;;0.85;;
67768;SDS011;54569;52.018;5.584;2023-04-03T14:23:40;3.33;;;1.00;;
67768;SDS011;54569;52.018;5.584;2023-04-03T14:26:11;2.45;;;1.02;;
67768;SDS011;54569;52.018;5.584;2023-04-03T14:28:43;1.58;;;1.00;;
67768;SDS011;54569;52.018;5.584;2023-04-03T14:31:10;2.17;;;0.77;;
67768;SDS011;54569;52.018;5.584;2023-04-03T14:33:37;1.05;;;0.90;;
67768;SDS011;54569;52.018;5.584;2023-04-03T14:36:37;4.32;;;0.93;;
67768;SDS011;54569;52.018;5.584;2023-04-03T14:38:56;2.83;;;0.98;;
67768;SDS011;54569;52.018;5.584;2023-04-03T14:41:23;1.70;;;0.98;;
67768;SDS011;54569;52.018;5.584;2023-04-03T14:43:50;2.25;;;0.95;;
67768;SDS011;54569;52.018;5.584;2023-04-03T14:46:20;3.03;;;1.10;;
67768;SDS011;54569;52.018;5.584;2023-04-03T14:48:58;1.15;;;0.93;;
67768;SDS011;54569;52.018;5.584;2023-04-03T14:51:24;1.92;;;1.10;;
67768;SDS011;54569;52.018;5.584;2023-04-03T14:53:51;2.15;;;1.00;;
67768;SDS011;54569;52.018;5.584;2023-04-03T14:56:25;1.40;;;1.17;;
67768;SDS011;54569;52.018;5.584;2023-04-03T14:58:57;2.03;;;1.08;;
67768;SDS011;54569;52.018;5.584;2023-04-03T15:01:24;4.82;;;1.10;;
67768;SDS011;54569;52.018;5.584;2023-04-03T15:03:51;0.95;;;0.80;;
67768;SDS011;54569;52.018;5.584;2023-04-03T15:06:17;2.70;;;1.10;;
67768;SDS011;54569;52.018;5.584;2023-04-03T15:08:44;2.72;;;1.48;;
67768;SDS011;54569;52.018;5.584;2023-04-03T15:11:12;2.05;;;1.20;;
67768;SDS011;54569;52.018;5.584;2023-04-03T15:13:38;1.50;;;1.00;;
67768;SDS011;54569;52.018;5.584;2023-04-03T15:16:05;3.35;;;0.82;;
67768;SDS011;54569;52.018;5.584;2023-04-03T15:18:37;2.22;;;1.15;;
67768;SDS011;54569;52.018;5.584;2023-04-03T15:21:04;2.00;;;1.33;;
67768;SDS011;54569;52.018;5.584;2023-04-03T15:23:30;2.67;;;1.55;;
67768;SDS011;54569;52.018;5.584;2023-04-03T15:25:56;1.42;;;1.00;;
67768;SDS011;54569;52.018;5.584;2023-04-03T15:28:23;1.65;;;1.10;;
67768;SDS011;54569;52.018;5.584;2023-04-03T15:30:55;2.13;;;1.10;;
67768;SDS011;54569;52.018;5.584;2023-04-03T15:33:21;1.77;;;1.08;;
67768;SDS011;54569;52.018;5.584;2023-04-03T15:35:47;3.50;;;1.33;;
67768;SDS011;54569;52.018;5.584;2023-04-03T15:38:13;3.17;;;1.30;;
67768;SDS011;54569;52.018;5.584;2023-04-03T15:40:39;3.58;;;1.45;;
67768;SDS011;54569;52.018;5.584;2023-04-03T15:43:05;1.98;;;1.10;;
67768;SDS011;54569;52.018;5.584;2023-04-03T15:45:31;3.75;;;1.65;;
67768;SDS011;54569;52.018;5.584;2023-04-03T15:47:58;1.80;;;1.17;;
67768;SDS011;54569;52.018;5.584;2023-04-03T15:50:24;2.92;;;1.55;;
67768;SDS011;54569;52.018;5.584;2023-04-03T15:52:51;2.83;;;1.67;;
67768;SDS011;54569;52.018;5.584;2023-04-03T15:55:22;1.45;;;1.15;;
67768;SDS011;54569;52.018;5.584;2023-04-03T15:57:50;2.08;;;1.25;;
67768;SDS011;54569;52.018;5.584;2023-04-03T16:00:16;1.50;;;1.15;;
67768;SDS011;54569;52.018;5.584;2023-04-03T16:02:43;1.70;;;0.98;;
67768;SDS011;54569;52.018;5.584;2023-04-03T16:05:10;2.03;;;1.25;;
67768;SDS011;54569;52.018;5.584;2023-04-03T16:07:37;1.27;;;1.17;;
67768;SDS011;54569;52.018;5.584;2023-04-03T16:10:04;2.22;;;0.95;;
67768;SDS011;54569;52.018;5.584;2023-04-03T16:12:32;3.28;;;1.40;;
67768;SDS011;54569;52.018;5.584;2023-04-03T16:14:58;4.22;;;1.23;;
67768;SDS011;54569;52.018;5.584;2023-04-03T16:17:24;4.35;;;1.42;;
67768;SDS011;54569;52.018;5.584;2023-04-03T16:19:52;3.58;;;1.52;;
67768;SDS011;54569;52.018;5.584;2023-04-03T16:22:19;2.17;;;1.20;;
67768;SDS011;54569;52.018;5.584;2023-04-03T16:24:45;1.80;;;1.38;;
67768;SDS011;54569;52.018;5.584;2023-04-03T16:27:10;2.35;;;1.17;;
67768;SDS011;54569;52.018;5.584;2023-04-03T16:29:36;2.72;;;1.48;;
67768;SDS011;54569;52.018;5.584;2023-04-03T16:32:02;2.70;;;1.48;;
67768;SDS011;54569;52.018;5.584;2023-04-03T16:34:28;6.40;;;1.33;;
67768;SDS011;54569;52.018;5.584;2023-04-03T16:36:56;3.25;;;1.35;;
67768;SDS011;54569;52.018;5.584;2023-04-03T16:39:21;1.30;;;1.20;;
67768;SDS011;54569;52.018;5.584;2023-04-03T16:41:47;1.58;;;1.40;;